createdAt,value
2017-10-09T13:28:58.340Z,84.4
2017-10-09T13:29:18.522Z,84.7
2017-10-09T13:29:38.714Z,84.9
2017-10-09T13:29:58.963Z,84.8
2017-10-09T13:30:19.134Z,84.7
2017-10-09T13:30:39.347Z,84.8
2017-10-09T13:30:59.590Z,85.5
2017-10-09T13:31:19.881Z,85.4
2017-10-09T13:31:40.067Z,85
2017-10-09T13:32:00.318Z,85.5
2017-10-09T13:32:20.505Z,85.8
2017-10-09T13:32:40.802Z,86.2
2017-10-09T13:33:01.019Z,85.7
2017-10-09T13:33:21.265Z,85.7
2017-10-09T13:33:41.456Z,86.1
2017-10-09T13:34:01.639Z,85.3
2017-10-09T13:34:21.832Z,85.3
2017-10-09T13:34:42.019Z,85.3
2017-10-09T13:35:02.201Z,85.3
2017-10-09T13:35:22.392Z,85.2
2017-10-09T13:35:42.658Z,85.7
2017-10-09T13:36:02.860Z,86.7
2017-10-09T13:36:23.110Z,87.2
2017-10-09T13:36:43.304Z,86.7
2017-10-09T13:37:03.563Z,86.8
2017-10-09T13:37:23.738Z,86.2
2017-10-09T13:37:43.962Z,85.6
2017-10-09T13:38:04.136Z,86
2017-10-09T13:38:24.356Z,87.1
2017-10-09T13:38:44.541Z,86.8
2017-10-09T13:39:04.770Z,86.6
2017-10-09T13:39:24.943Z,86.8
2017-10-09T13:39:45.126Z,87
2017-10-09T13:40:05.309Z,86.6
2017-10-09T13:40:25.488Z,85.6
2017-10-09T13:40:45.670Z,86.3
2017-10-09T13:41:05.849Z,86.9
2017-10-09T13:41:26.026Z,86.7
2017-10-09T13:41:46.204Z,86.9
2017-10-09T13:42:06.379Z,86.9
2017-10-09T13:42:26.560Z,87.4
2017-10-09T13:42:46.779Z,87.6
2017-10-09T13:43:06.998Z,87.5
2017-10-09T13:43:27.177Z,87.1
2017-10-09T13:43:47.428Z,86.4
2017-10-09T13:44:07.607Z,86.6
2017-10-09T13:44:27.791Z,87.7
2017-10-09T13:44:48.004Z,87
2017-10-09T13:45:08.181Z,86.5
2017-10-09T13:45:28.385Z,86.9
2017-10-09T13:45:48.589Z,87
2017-10-09T13:46:08.762Z,87.3
2017-10-09T13:46:29.023Z,87.2
2017-10-09T13:46:49.308Z,87.2
2017-10-09T13:47:09.506Z,87.3
2017-10-09T13:47:29.710Z,88.1
2017-10-09T13:47:49.948Z,88.5
2017-10-09T13:48:10.189Z,88.6
2017-10-09T13:48:30.409Z,88.6
2017-10-09T13:48:50.633Z,88.3
2017-10-09T13:49:10.807Z,88.6
2017-10-09T13:49:30.997Z,87.8
2017-10-09T13:49:51.177Z,87.5
2017-10-09T13:50:11.353Z,87.3
2017-10-09T13:50:31.537Z,86.6
2017-10-09T13:50:51.720Z,86.5
2017-10-09T13:51:11.894Z,86.8
2017-10-09T13:51:32.129Z,87.7
2017-10-09T13:51:52.327Z,88
2017-10-09T13:52:12.508Z,88.6
2017-10-09T13:52:32.684Z,88.5
2017-10-09T13:52:52.881Z,88.7
2017-10-09T13:53:13.100Z,88.7
2017-10-09T13:53:33.331Z,88.7
2017-10-09T13:53:53.520Z,89.8
2017-10-09T13:54:13.739Z,88.9
2017-10-09T13:54:33.924Z,88.3
2017-10-09T13:54:54.108Z,88.8
2017-10-09T13:55:14.302Z,89.4
2017-10-09T13:55:34.486Z,90.1
2017-10-09T13:55:54.680Z,89.8
2017-10-09T13:56:14.906Z,89.2
2017-10-09T13:56:36.698Z,89.4
2017-10-09T13:56:56.881Z,89
2017-10-09T13:57:17.059Z,88.9
2017-10-09T13:57:37.330Z,89.8
2017-10-09T13:57:57.602Z,90.1
2017-10-09T13:58:17.860Z,89.7
2017-10-09T13:58:38.038Z,89.1
2017-10-09T13:58:58.209Z,88.8
2017-10-09T13:59:18.435Z,89.1
2017-10-09T13:59:38.615Z,89.2
2017-10-09T13:59:58.858Z,89.8
2017-10-09T14:00:19.037Z,90.3
2017-10-09T14:00:39.236Z,90.1
2017-10-09T14:00:59.427Z,90.1
2017-10-09T14:01:19.693Z,90.4
2017-10-09T14:01:39.871Z,91
2017-10-09T14:02:00.102Z,91.6
2017-10-09T14:02:20.290Z,91.3
2017-10-09T14:02:40.504Z,91.2
2017-10-09T14:03:00.724Z,91.2
2017-10-09T14:03:20.916Z,91.4
2017-10-09T14:03:41.223Z,91.3
2017-10-09T14:04:01.557Z,91.4
2017-10-09T14:04:21.744Z,91.2
2017-10-09T14:04:41.967Z,91.2
2017-10-09T14:05:02.152Z,91.5
2017-10-09T14:05:22.327Z,91.7
2017-10-09T14:05:42.548Z,92.5
2017-10-09T14:06:02.715Z,92
2017-10-09T14:06:22.905Z,92
2017-10-09T14:06:43.093Z,91.1
2017-10-09T14:07:03.279Z,91.1
2017-10-09T14:07:23.506Z,91
2017-10-09T14:07:43.688Z,91.2
2017-10-09T14:08:03.917Z,91.3
2017-10-09T14:08:24.143Z,91.2
2017-10-09T14:08:44.331Z,91.2
2017-10-09T14:09:04.516Z,91.6
2017-10-09T14:09:24.694Z,90.9
2017-10-09T14:09:44.931Z,91.2
2017-10-09T14:10:05.156Z,91.2
2017-10-09T14:10:25.332Z,91.5
2017-10-09T14:10:45.578Z,91.3
2017-10-09T14:11:05.747Z,91.5
2017-10-09T14:11:25.920Z,91.2
2017-10-09T14:11:46.107Z,91.1
2017-10-09T14:12:06.333Z,91
2017-10-09T14:12:26.524Z,91.3
2017-10-09T14:12:46.747Z,91.5
2017-10-09T14:13:06.933Z,91.9
2017-10-09T14:13:27.241Z,91.8
2017-10-09T14:13:47.436Z,92
2017-10-09T14:14:07.663Z,91.5
2017-10-09T14:14:27.921Z,91.5
2017-10-09T14:14:48.102Z,92.1
2017-10-09T14:15:08.282Z,92.5
2017-10-09T14:15:28.470Z,92
2017-10-09T14:15:48.654Z,92.1
2017-10-09T14:16:08.831Z,92.3
2017-10-09T14:16:29.235Z,92.4
2017-10-09T14:16:49.757Z,91.4
2017-10-09T14:17:09.937Z,91.5
2017-10-09T14:17:30.121Z,91.7
2017-10-09T14:17:50.327Z,92
2017-10-09T14:18:10.511Z,92.1
2017-10-09T14:18:30.690Z,91.7
2017-10-09T14:18:50.928Z,91.8
2017-10-09T14:19:11.101Z,92.3
2017-10-09T14:19:31.283Z,92.1
2017-10-09T14:19:51.463Z,91.9
2017-10-09T14:20:11.636Z,91.2
2017-10-09T14:20:31.821Z,90.8
2017-10-09T14:20:52.004Z,90.5
2017-10-09T14:21:12.226Z,90.7
2017-10-09T14:21:32.458Z,90.7
2017-10-09T14:21:52.629Z,91.3
2017-10-09T14:22:12.866Z,91.3
2017-10-09T14:22:33.095Z,91.2
2017-10-09T14:22:53.275Z,91.7
2017-10-09T14:23:13.456Z,91.4
2017-10-09T14:23:33.635Z,91.2
2017-10-09T14:23:53.814Z,91.5
2017-10-09T14:24:13.995Z,91.3
2017-10-09T14:24:34.214Z,91.5
2017-10-09T14:24:54.477Z,90.4
2017-10-09T14:25:14.698Z,90
2017-10-09T14:25:34.902Z,90.2
2017-10-09T14:25:55.091Z,91.3
2017-10-09T14:26:15.263Z,91
2017-10-09T14:26:35.514Z,90.7
2017-10-09T14:26:55.697Z,90.8
2017-10-09T14:27:15.907Z,90.7
2017-10-09T14:27:36.090Z,90.5
2017-10-09T14:27:56.264Z,90.5
2017-10-09T14:28:16.445Z,90.2
2017-10-09T14:28:36.671Z,90.5
2017-10-09T14:28:56.856Z,90.8
2017-10-09T14:29:17.316Z,90.6
2017-10-09T14:29:37.547Z,90.8
2017-10-09T14:29:57.720Z,91
2017-10-09T14:30:17.898Z,91
2017-10-09T14:30:38.072Z,90.3
2017-10-09T14:30:58.256Z,89.8
2017-10-09T14:39:44.624Z,80.9
2017-10-09T14:40:04.805Z,80.8
2017-10-09T14:40:24.986Z,80.8
2017-10-09T14:40:45.321Z,77.3
2017-10-09T14:41:05.511Z,76.8
2017-10-09T14:41:25.699Z,76.8
2017-10-09T14:41:45.867Z,77.5
2017-10-09T14:42:06.045Z,77.3
2017-10-09T14:42:26.232Z,77.3
2017-10-09T14:42:46.419Z,77.8
2017-10-09T14:43:06.599Z,76.5
2017-10-09T14:43:26.780Z,75.9
2017-10-09T14:43:47.023Z,75.8
2017-10-09T14:44:07.204Z,74.6
2017-10-09T14:44:27.381Z,73.8
2017-10-09T14:44:47.569Z,74.7
2017-10-09T14:45:07.752Z,76
2017-10-09T14:45:27.932Z,76.6
2017-10-09T14:45:48.103Z,77
2017-10-09T14:46:08.293Z,76.4
2017-10-09T14:46:28.484Z,75
2017-10-09T14:46:48.717Z,75.1
2017-10-09T14:47:08.902Z,74.3
2017-10-09T14:47:29.089Z,74.3
2017-10-09T14:47:49.269Z,74.9
2017-10-09T14:48:09.515Z,75.1
2017-10-09T14:48:29.728Z,75.8
2017-10-09T14:48:49.916Z,76.3
2017-10-09T14:49:10.087Z,77.6
2017-10-09T14:49:30.266Z,76.8
2017-10-09T14:49:50.443Z,77.4
2017-10-09T14:50:10.627Z,78.1
2017-10-09T14:50:30.802Z,77.3
2017-10-09T14:50:50.978Z,77.6
2017-10-09T14:51:11.169Z,77.6
2017-10-09T14:51:31.602Z,78.8
2017-10-09T14:51:51.787Z,78.6
2017-10-09T14:52:11.974Z,78.2
2017-10-09T14:52:32.150Z,78.6
2017-10-09T14:52:52.343Z,78.5
2017-10-09T14:53:12.545Z,78.9
2017-10-09T14:53:32.730Z,79.2
2017-10-09T14:53:52.928Z,79
2017-10-09T14:54:13.115Z,79.5
2017-10-09T14:54:33.284Z,79.8
2017-10-09T14:54:53.542Z,80.2
2017-10-09T14:55:13.726Z,80.2
2017-10-09T14:55:33.971Z,80.8
2017-10-09T14:55:54.148Z,80.4
2017-10-09T14:56:14.394Z,80.7
2017-10-09T14:56:34.594Z,81.2
2017-10-09T14:56:54.786Z,80.8
2017-10-09T14:57:14.955Z,80.2
2017-10-09T14:57:35.134Z,80.1
2017-10-09T14:57:55.312Z,80.6
2017-10-09T14:58:15.498Z,81
2017-10-09T14:58:35.756Z,80.1
2017-10-09T14:58:55.948Z,79.8
2017-10-09T14:59:16.133Z,79.7
2017-10-09T14:59:36.322Z,79.9
2017-10-09T14:59:56.507Z,80.1
2017-10-09T15:00:16.696Z,79.2
2017-10-09T15:00:36.892Z,78.4
2017-10-09T15:00:57.094Z,78.6
2017-10-09T15:01:17.287Z,79.1
2017-10-09T15:01:37.517Z,78.1
2017-10-09T15:01:57.702Z,79
2017-10-09T15:02:17.888Z,79.4
2017-10-09T15:02:38.078Z,79.4
2017-10-09T15:02:58.256Z,79.2
2017-10-09T15:03:18.441Z,79.4
2017-10-09T15:03:38.613Z,79.7
2017-10-09T15:03:58.919Z,79.6
2017-10-09T15:04:19.104Z,78.5
2017-10-09T15:04:39.290Z,78
2017-10-09T15:04:59.477Z,78.9
2017-10-09T15:05:19.790Z,77.8
2017-10-09T15:05:40.105Z,77.9
2017-10-09T15:06:00.334Z,77.4
2017-10-09T15:06:20.508Z,77
2017-10-09T15:06:40.700Z,77.2
2017-10-09T15:07:00.881Z,77.6
2017-10-09T15:07:21.059Z,77.2
2017-10-09T15:07:41.247Z,77.7
2017-10-09T15:08:01.433Z,77.9
2017-10-09T15:08:21.615Z,78.3
2017-10-09T15:08:41.802Z,78
2017-10-09T15:09:01.983Z,78.1
2017-10-09T15:09:22.222Z,77.4
2017-10-09T15:09:42.402Z,77.6
2017-10-09T15:10:02.685Z,77.8
2017-10-09T15:10:22.881Z,78.5
2017-10-09T15:10:43.149Z,78.1
2017-10-09T15:11:03.386Z,78.9
2017-10-09T15:11:23.595Z,79.5
2017-10-09T15:11:43.829Z,79.3
2017-10-09T15:12:04.019Z,79.5
2017-10-09T15:12:24.197Z,79.8
2017-10-09T15:12:44.462Z,79.7
2017-10-09T15:13:04.662Z,78.9
2017-10-09T15:13:24.846Z,78.3
2017-10-09T15:13:45.034Z,79.2
2017-10-09T15:14:05.218Z,79.3
2017-10-09T15:14:25.396Z,79.4
2017-10-09T15:14:45.586Z,80.1
2017-10-09T15:15:05.756Z,80.2
2017-10-09T15:15:26.011Z,80.3
2017-10-09T15:15:46.368Z,80
2017-10-09T15:16:06.552Z,79.6
2017-10-09T15:16:26.733Z,79.7
2017-10-09T15:16:46.911Z,79.4
2017-10-09T15:17:07.134Z,79
2017-10-09T15:17:27.318Z,79
2017-10-09T15:17:47.507Z,79.7
2017-10-09T15:18:07.743Z,80
2017-10-09T15:18:27.928Z,80.3
2017-10-09T15:18:48.124Z,80.8
2017-10-09T15:19:08.363Z,80.9
2017-10-09T15:19:28.556Z,81
2017-10-09T15:19:48.741Z,80.6
2017-10-09T15:20:08.983Z,81.3
2017-10-09T15:20:29.146Z,81.5
2017-10-09T15:20:49.322Z,82.1
2017-10-09T15:21:09.518Z,81.2
2017-10-09T15:21:29.814Z,81.3
2017-10-09T15:21:49.995Z,81.4
2017-10-09T15:22:10.308Z,81.1
2017-10-09T15:22:30.554Z,81.3
2017-10-09T15:22:51.166Z,81.5
2017-10-09T15:23:11.359Z,80.8
2017-10-09T15:23:31.602Z,80.1
2017-10-09T15:23:51.840Z,81.1
2017-10-09T15:24:12.141Z,81.3
2017-10-09T15:24:32.332Z,80.7
2017-10-09T15:24:52.515Z,80.2
2017-10-09T15:25:12.690Z,80.1
2017-10-09T15:25:32.905Z,79.8
2017-10-09T15:25:53.145Z,80.1
2017-10-09T15:26:13.425Z,79.5
2017-10-09T15:26:33.610Z,79.8
2017-10-09T15:26:53.797Z,80.5
2017-10-09T15:27:14.049Z,79.7
2017-10-09T15:27:34.347Z,80.5
2017-10-09T15:27:54.531Z,80.4
2017-10-09T15:28:14.793Z,81.1
2017-10-09T15:28:34.981Z,81.3
2017-10-09T15:28:55.174Z,81.3
2017-10-09T15:29:15.376Z,81.2
2017-10-09T15:29:35.614Z,80.9
2017-10-09T15:29:55.869Z,82
2017-10-09T15:30:16.048Z,82.2
2017-10-09T15:30:36.353Z,82.5
2017-10-09T15:30:56.535Z,81.8
2017-10-09T15:31:16.708Z,81
2017-10-09T15:31:36.882Z,81
2017-10-09T15:31:57.071Z,80.8
2017-10-09T15:32:17.311Z,81.8
2017-10-09T15:32:37.486Z,83.2
2017-10-09T15:32:57.738Z,82.5
2017-10-09T15:33:17.925Z,82.9
2017-10-09T15:33:38.120Z,83
2017-10-09T15:33:58.384Z,82.6
2017-10-09T15:34:18.570Z,82.2
2017-10-09T15:34:38.750Z,82.8
2017-10-09T15:34:58.932Z,83.4
2017-10-09T15:35:19.109Z,83.5
2017-10-09T15:35:39.586Z,83.3
2017-10-09T15:35:59.820Z,83.7
2017-10-09T15:36:20.113Z,82.9
2017-10-09T15:36:40.319Z,82.5
2017-10-09T15:37:00.584Z,83
2017-10-09T15:37:20.783Z,82.5
2017-10-09T15:37:41.090Z,82.7
2017-10-09T15:38:01.368Z,83.4
2017-10-09T15:38:21.553Z,84.4
2017-10-09T15:38:41.738Z,85
2017-10-09T15:39:01.988Z,84.5
2017-10-09T15:39:22.153Z,84.1
2017-10-09T15:39:42.448Z,83.5
2017-10-09T15:40:02.662Z,84
2017-10-09T15:40:22.861Z,83.7
2017-10-09T15:40:43.364Z,84
2017-10-09T15:41:03.540Z,83.4
2017-10-09T15:41:23.778Z,83.5
2017-10-09T15:41:44.034Z,83.4
2017-10-09T15:42:04.217Z,83.5
2017-10-09T15:42:24.412Z,84.1
2017-10-09T15:42:44.642Z,83.8
2017-10-09T15:43:04.826Z,84
2017-10-09T15:43:25.019Z,83.8
2017-10-09T15:43:45.206Z,83.9
2017-10-09T15:44:05.424Z,84.1
2017-10-09T15:44:25.605Z,83.9
2017-10-09T15:44:45.885Z,84.5
2017-10-09T15:45:06.133Z,84.2
2017-10-09T15:45:26.448Z,83.9
2017-10-09T15:45:46.616Z,84.5
2017-10-09T15:46:06.783Z,84.5
2017-10-09T15:46:26.950Z,84.4
2017-10-09T15:46:47.127Z,84.4
2017-10-09T15:47:07.322Z,84.4
2017-10-09T15:47:27.508Z,84.4
2017-10-09T15:47:47.706Z,84.4
2017-10-09T15:48:07.893Z,84.3
2017-10-09T15:48:28.082Z,85.2
2017-10-09T15:48:48.253Z,85
2017-10-09T15:49:08.427Z,85.6
2017-10-09T15:49:28.613Z,85.2
2017-10-09T15:49:48.847Z,85.6
2017-10-09T15:50:09.021Z,85.6
2017-10-09T15:50:29.192Z,85.3
2017-10-09T15:50:49.364Z,85.1
2017-10-09T15:51:09.594Z,84.6
2017-10-09T15:51:29.777Z,84.7
2017-10-09T15:51:50.012Z,84.6
2017-10-09T15:52:10.189Z,85
2017-10-09T15:52:30.423Z,85.2
2017-10-09T15:52:50.594Z,84.9
2017-10-09T15:53:10.774Z,84.6
2017-10-09T15:53:31.079Z,85.2
2017-10-09T15:53:51.289Z,85
2017-10-09T15:54:11.460Z,85.8
2017-10-09T15:54:31.678Z,86.2
2017-10-09T15:54:52.077Z,85.6
2017-10-09T15:55:12.205Z,85.1
2017-10-09T15:55:32.387Z,85.6
2017-10-09T15:55:52.861Z,85.2
2017-10-09T15:56:12.722Z,85.1
2017-10-09T15:56:32.894Z,85.6
2017-10-09T15:56:53.080Z,85.2
2017-10-09T15:57:13.311Z,85.5
2017-10-09T15:57:33.508Z,85.4
2017-10-09T15:57:53.703Z,85.7
2017-10-09T15:58:13.912Z,85.6
2017-10-09T15:58:34.078Z,85.9
2017-10-09T15:58:54.259Z,85.4
2017-10-09T15:59:14.428Z,86.4
2017-10-09T15:59:34.599Z,85.9
2017-10-09T15:59:54.762Z,86.5
2017-10-09T16:00:14.942Z,86.6
2017-10-09T16:00:35.117Z,85.8
2017-10-09T16:00:55.354Z,85.6
2017-10-09T16:01:15.538Z,86.2
2017-10-09T16:01:35.735Z,86.8
2017-10-09T16:01:55.912Z,86
2017-10-09T16:02:16.084Z,86.5
2017-10-09T16:02:36.270Z,86.5
2017-10-09T16:02:56.448Z,86.6
2017-10-09T16:03:16.615Z,87.6
2017-10-09T16:03:36.843Z,87.6
2017-10-09T16:03:57.036Z,86.8
2017-10-09T16:04:17.267Z,87
2017-10-09T16:04:37.521Z,86.8
2017-10-09T16:04:57.693Z,86.9
2017-10-09T16:05:17.912Z,86.7
2017-10-09T16:05:38.091Z,86.8
2017-10-09T16:05:58.282Z,86.8
2017-10-09T16:06:18.462Z,86.8
2017-10-09T16:06:38.632Z,86.7
2017-10-09T16:06:58.888Z,86.7
2017-10-09T16:07:19.075Z,87.1
2017-10-09T16:07:39.255Z,87.3
2017-10-09T16:07:59.436Z,87.1
2017-10-09T16:08:19.615Z,86.9
2017-10-09T16:08:39.786Z,87.6
2017-10-09T16:08:59.979Z,86.7
2017-10-09T16:09:20.134Z,86.9
2017-10-09T16:09:40.314Z,87.3
2017-10-09T16:10:00.605Z,87.4
2017-10-09T16:10:20.776Z,87.3
2017-10-09T16:10:40.963Z,87.2
2017-10-09T16:11:01.190Z,86.9
2017-10-09T16:11:21.371Z,87
2017-10-09T16:11:41.616Z,87.2
2017-10-09T16:12:01.909Z,87.2
2017-10-09T16:12:22.179Z,87.6
2017-10-09T16:12:42.368Z,87.8
2017-10-09T16:13:02.556Z,87.6
2017-10-09T16:13:22.746Z,88
2017-10-09T16:13:42.923Z,87.9
2017-10-09T16:14:03.104Z,88.3
2017-10-09T16:14:23.280Z,88.4
2017-10-09T16:14:43.821Z,88.2
2017-10-09T16:15:04.056Z,88.6
2017-10-09T16:15:24.297Z,89.5
2017-10-09T16:15:44.482Z,89
2017-10-09T16:16:04.652Z,89
2017-10-09T16:16:24.819Z,89.1
2017-10-09T16:16:45.001Z,89.2
2017-10-09T16:17:05.170Z,89
2017-10-09T16:17:25.349Z,89
2017-10-09T16:17:45.587Z,88.7
2017-10-09T16:18:05.764Z,89
2017-10-09T16:18:27.878Z,88.6
2017-10-09T16:18:48.057Z,88.6
2017-10-09T16:19:08.233Z,88.9
2017-10-09T16:19:28.474Z,88.9
2017-10-09T16:19:48.644Z,88.6
2017-10-09T16:20:08.831Z,88.8
2017-10-09T16:20:29.076Z,88.7
2017-10-09T16:20:49.264Z,88.8
2017-10-09T16:21:09.436Z,89
2017-10-09T16:21:29.679Z,89.3
2017-10-09T16:21:49.856Z,89.4
2017-10-09T16:22:10.033Z,89.3
2017-10-09T16:22:30.203Z,89.9
2017-10-09T16:22:50.372Z,90.1
2017-10-09T16:23:10.550Z,90.2
2017-10-09T16:23:30.733Z,89.8
2017-10-09T16:23:50.911Z,90.1
2017-10-09T16:24:11.224Z,89.4
2017-10-09T16:24:31.450Z,89.8
2017-10-09T16:24:51.629Z,90.2
2017-10-09T16:25:11.807Z,90.3
2017-10-09T16:25:32.041Z,89.5
2017-10-09T16:25:52.209Z,89.9
2017-10-09T16:26:12.392Z,89.7
2017-10-09T16:26:32.556Z,89.6
2017-10-09T16:26:52.750Z,89.8
2017-10-09T16:27:13.069Z,89.6
2017-10-09T16:27:33.251Z,90.1
2017-10-09T16:27:53.484Z,90.2
2017-10-09T16:28:13.659Z,90.6
2017-10-09T16:28:33.831Z,90.6
2017-10-09T16:28:54.005Z,90.3
2017-10-09T16:29:14.193Z,90.7
2017-10-09T16:29:34.358Z,90.6
2017-10-09T16:29:54.907Z,91.2
2017-10-09T16:30:15.079Z,91.1
2017-10-09T16:30:35.886Z,91.1
2017-10-09T16:30:56.050Z,91.1
2017-10-09T16:31:16.257Z,91.1
2017-10-09T16:31:36.573Z,90.8
2017-10-09T16:31:56.799Z,91.3
2017-10-09T16:32:17.302Z,91.1
2017-10-09T16:32:37.540Z,91.2
2017-10-09T16:32:57.743Z,91.2
2017-10-09T16:33:17.923Z,91.1
2017-10-09T16:33:38.115Z,91.1
2017-10-09T16:33:58.289Z,91.8
2017-10-09T16:34:18.469Z,91.9
2017-10-09T16:34:38.658Z,92.6
2017-10-09T16:34:58.851Z,92.5
2017-10-09T16:35:19.111Z,92.6
2017-10-09T16:35:39.316Z,92.5
2017-10-09T16:35:59.554Z,92.6
2017-10-09T16:36:19.730Z,92.4
2017-10-09T16:36:39.917Z,92.5
2017-10-09T16:37:00.097Z,93.2
2017-10-09T16:37:20.342Z,92.6
2017-10-09T16:37:40.580Z,92.5
2017-10-09T16:38:00.813Z,91.7
2017-10-09T16:38:21.038Z,92.4
2017-10-09T16:38:41.217Z,92.2
2017-10-09T16:39:01.392Z,92.5
2017-10-09T16:39:21.637Z,92.5
2017-10-09T16:39:41.811Z,92.7
2017-10-09T16:40:01.976Z,93.3
2017-10-09T16:40:22.191Z,92.5
2017-10-09T16:40:42.358Z,92.7
2017-10-09T16:41:02.556Z,92.3
2017-10-09T16:41:22.731Z,92.7
2017-10-09T16:41:42.899Z,92.5
2017-10-09T16:42:03.155Z,92.7
2017-10-09T16:42:23.345Z,92.8
2017-10-09T16:42:43.506Z,92.3
2017-10-09T16:43:03.689Z,92.5
2017-10-09T16:43:23.865Z,92.5
2017-10-09T16:43:44.047Z,92.5
2017-10-09T16:44:04.216Z,93.1
2017-10-09T16:44:24.379Z,94.1
2017-10-09T16:44:44.581Z,93.7
2017-10-09T16:45:04.748Z,93.7
2017-10-09T16:45:24.904Z,94
2017-10-09T16:45:45.146Z,93.5
2017-10-09T16:46:05.323Z,93.3
2017-10-09T16:46:25.501Z,92.7
2017-10-09T16:46:45.736Z,92.9
2017-10-09T16:47:05.926Z,93.2
2017-10-09T16:47:26.216Z,93.6
2017-10-09T16:47:46.446Z,93.5
2017-10-09T16:48:06.687Z,93
2017-10-09T16:48:26.870Z,93.6
2017-10-09T16:48:47.037Z,93.4
2017-10-09T16:49:07.700Z,93.3
2017-10-09T16:49:27.861Z,93.2
2017-10-09T16:49:48.037Z,92.9
2017-10-09T16:50:08.269Z,93.6
2017-10-09T16:50:28.438Z,93.6
2017-10-09T16:50:48.609Z,93.1
2017-10-09T16:51:08.788Z,93.7
2017-10-09T16:51:28.957Z,93.4
2017-10-09T16:51:49.182Z,93.3
2017-10-09T16:52:09.372Z,93.3
2017-10-09T16:52:29.548Z,93.3
2017-10-09T16:52:49.721Z,92.7
2017-10-09T16:53:09.905Z,93.1
2017-10-09T16:53:30.091Z,93.1
2017-10-09T16:53:50.266Z,93.7
2017-10-09T16:54:10.456Z,93.1
2017-10-09T16:54:30.629Z,93
2017-10-09T16:54:50.799Z,93.1
2017-10-09T16:55:10.970Z,93.3
2017-10-09T16:55:31.197Z,93.4
2017-10-09T16:55:51.376Z,93.4
2017-10-09T16:56:11.543Z,93.4
2017-10-09T16:56:31.704Z,93.4
2017-10-09T16:56:51.866Z,93.1
2017-10-09T16:57:12.036Z,92.6
2017-10-09T16:57:32.201Z,93.4
2017-10-09T16:57:52.373Z,93.3
2017-10-09T16:58:12.553Z,93.3
2017-10-09T16:58:32.723Z,92.6
2017-10-09T16:58:52.895Z,93.3
2017-10-09T16:59:13.070Z,93.5
2017-10-09T16:59:33.242Z,93.5
2017-10-09T16:59:53.418Z,93.2
2017-10-09T17:00:13.655Z,93.2
2017-10-09T17:00:34.758Z,93
2017-10-09T17:00:54.923Z,93
2017-10-09T17:01:15.165Z,92.5
2017-10-09T17:01:35.334Z,93.2
2017-10-09T17:01:55.510Z,93.1
2017-10-09T17:02:15.684Z,93.7
2017-10-09T17:02:35.862Z,93.2
2017-10-09T17:02:56.049Z,93.6
2017-10-09T17:03:16.226Z,93.8
2017-10-09T17:03:36.465Z,93.1
2017-10-09T17:03:56.724Z,93.5
2017-10-09T17:04:16.898Z,93.4
2017-10-09T17:04:37.073Z,93.9
2017-10-09T17:04:57.258Z,93.8
2017-10-09T17:05:17.425Z,93.8
2017-10-09T17:05:37.611Z,94.5
2017-10-09T17:05:57.790Z,94.4
2017-10-09T17:06:17.979Z,94.5
2017-10-09T17:06:38.153Z,94.3
2017-10-09T17:06:58.364Z,94.1
2017-10-09T17:07:18.604Z,94
2017-10-09T17:07:38.779Z,93.7
2017-10-09T17:07:59.042Z,93.7
2017-10-09T17:08:19.217Z,93.7
2017-10-09T17:08:39.385Z,93
2017-10-09T17:08:59.577Z,93.4
2017-10-09T17:09:19.747Z,93.5
2017-10-09T17:09:39.926Z,93.4
2017-10-09T17:10:00.108Z,93.9
2017-10-09T17:10:20.301Z,94.1
2017-10-09T17:10:40.473Z,94.1
2017-10-09T17:11:00.641Z,94.1
2017-10-09T17:11:20.803Z,93.7
2017-10-09T17:11:40.968Z,94.4
2017-10-09T17:12:01.146Z,93.9
2017-10-09T17:12:21.316Z,93.8
2017-10-09T17:12:41.518Z,94.2
2017-10-09T17:13:01.682Z,93.9
2017-10-09T17:13:21.848Z,93.6
2017-10-09T17:13:42.027Z,94.1
2017-10-09T17:14:02.200Z,93.8
2017-10-09T17:14:22.409Z,93.6
2017-10-09T17:14:42.582Z,93.7
2017-10-09T17:15:02.758Z,94.3
2017-10-09T17:15:22.938Z,93.8
2017-10-09T17:15:43.118Z,94.6
2017-10-09T17:16:03.290Z,94.5
2017-10-09T17:16:23.482Z,94.6
2017-10-09T17:16:43.667Z,94.2
2017-10-09T17:17:03.839Z,94
2017-10-09T17:17:24.015Z,94.3
2017-10-09T17:17:44.183Z,94.4
2017-10-09T17:18:04.387Z,94.7
2017-10-09T17:18:24.543Z,94.5
2017-10-09T17:18:44.722Z,95.2
2017-10-09T17:19:04.896Z,94.8
2017-10-09T17:19:25.068Z,94.7
2017-10-09T17:19:45.235Z,94.4
2017-10-09T17:20:05.439Z,94.6
2017-10-09T17:20:25.606Z,95.2
2017-10-09T17:20:45.798Z,95
2017-10-09T17:21:06.037Z,94.2
2017-10-09T17:21:26.202Z,94.3
2017-10-09T17:21:46.372Z,94.6
2017-10-09T17:22:06.558Z,94.8
2017-10-09T17:22:26.969Z,94.8
2017-10-09T17:22:47.133Z,94.5
2017-10-09T17:23:07.394Z,95.1
2017-10-09T17:23:27.573Z,95.1
2017-10-09T17:23:47.873Z,94.8
2017-10-09T17:24:08.100Z,95
2017-10-09T17:24:30.199Z,95.6
2017-10-09T17:24:50.380Z,95.2
2017-10-09T17:25:10.829Z,95.3
2017-10-09T17:25:30.996Z,95
2017-10-09T17:25:51.168Z,94.6
2017-10-09T17:26:11.344Z,94.6
2017-10-09T17:26:31.520Z,95.1
2017-10-09T17:26:51.690Z,95.2
2017-10-09T17:27:11.867Z,94.6
2017-10-09T17:27:32.765Z,94.8
2017-10-09T17:27:52.933Z,94.7
2017-10-09T17:28:13.162Z,95
2017-10-09T17:28:33.491Z,95.2
2017-10-09T17:28:53.802Z,95.3
2017-10-09T17:29:13.973Z,95.7
2017-10-09T17:29:34.159Z,95.8
2017-10-09T17:29:54.322Z,95.4
2017-10-09T17:30:14.617Z,95.2
2017-10-09T17:30:34.785Z,95.1
2017-10-09T17:30:55.001Z,95.1
2017-10-09T17:31:15.263Z,96
2017-10-09T17:31:35.455Z,96.2
2017-10-09T17:31:55.644Z,95.7
2017-10-09T17:32:15.804Z,96.1
2017-10-09T17:32:35.986Z,95.7
2017-10-09T17:32:56.173Z,95.7
2017-10-09T17:33:16.354Z,95.6
2017-10-09T17:33:36.517Z,96.8
2017-10-09T17:33:56.818Z,96
2017-10-09T17:34:16.984Z,95.5
2017-10-09T17:34:37.170Z,95.2
2017-10-09T17:34:57.409Z,95.6
2017-10-09T17:35:17.579Z,95.6
2017-10-09T17:35:37.744Z,95.6
2017-10-09T17:35:57.919Z,95.9
2017-10-09T17:36:18.156Z,95.6
2017-10-09T17:36:38.316Z,95.9
2017-10-09T17:36:58.501Z,95.9
2017-10-09T17:37:18.672Z,96.2
2017-10-09T17:37:38.841Z,96.4
2017-10-09T17:37:59.038Z,96.2
2017-10-09T17:38:19.211Z,96.3
2017-10-09T17:38:39.382Z,96.9
2017-10-09T17:38:59.543Z,96
2017-10-09T17:39:19.712Z,95.6
2017-10-09T17:39:39.908Z,96.1
2017-10-09T17:40:00.162Z,96.6
2017-10-09T17:40:20.399Z,96.5
2017-10-09T17:40:40.566Z,96.7
2017-10-09T17:41:00.864Z,96.7
2017-10-09T17:41:21.043Z,96.9
2017-10-09T17:41:41.215Z,96.5
2017-10-09T17:42:01.410Z,96.4
2017-10-09T17:42:21.586Z,95.8
2017-10-09T17:42:41.821Z,95.7
2017-10-09T17:43:02.052Z,95.7
2017-10-09T17:43:22.218Z,95.6
2017-10-09T17:43:42.387Z,96.2
2017-10-09T17:44:02.564Z,96.2
2017-10-09T17:44:22.736Z,96.9
2017-10-09T17:44:43.011Z,96.3
2017-10-09T17:45:03.266Z,96.1
2017-10-09T17:45:23.451Z,96.4
2017-10-09T17:45:43.694Z,96.3
2017-10-09T17:46:03.894Z,96.1
2017-10-09T17:46:24.223Z,96.1
2017-10-09T17:46:44.388Z,96.7
2017-10-09T17:47:04.562Z,96.8
2017-10-09T17:47:24.854Z,97.3
2017-10-09T17:47:45.043Z,96.7
2017-10-09T17:48:05.281Z,97.1
2017-10-09T17:48:25.484Z,97.4
2017-10-09T17:48:45.645Z,97.6
2017-10-09T17:49:05.881Z,97.6
2017-10-09T17:49:26.063Z,96.9
2017-10-09T17:49:46.251Z,96.7
2017-10-09T17:50:06.486Z,97.3
2017-10-09T17:50:26.649Z,96.9
2017-10-09T17:50:47.022Z,96.7
2017-10-09T17:51:07.191Z,96.5
2017-10-09T17:51:27.379Z,96.7
2017-10-09T17:51:47.574Z,96.7
2017-10-09T17:52:07.758Z,96.4
2017-10-09T17:52:27.945Z,96.3
2017-10-09T17:52:48.126Z,96.7
2017-10-09T17:53:08.308Z,96.4
2017-10-09T17:53:28.492Z,96.7
2017-10-09T17:53:48.746Z,96.7
2017-10-09T17:54:08.935Z,97.2
2017-10-09T17:54:29.102Z,97
2017-10-09T17:54:49.267Z,97.1
2017-10-09T17:55:09.461Z,96.9
2017-10-09T17:55:29.635Z,97.3
2017-10-09T17:55:50.403Z,97.1
2017-10-09T17:56:10.587Z,96.6
2017-10-09T17:56:30.811Z,96.7
2017-10-09T17:56:50.983Z,97
2017-10-09T17:57:11.259Z,97.1
2017-10-09T17:57:31.497Z,97.3
2017-10-09T17:57:51.747Z,97.3
2017-10-09T17:58:11.948Z,97.1
2017-10-09T17:58:32.129Z,97.3
2017-10-09T17:58:52.350Z,96.7
2017-10-09T17:59:12.588Z,96.7
2017-10-09T17:59:32.769Z,96.7
2017-10-09T17:59:52.949Z,97.2
2017-10-09T18:00:13.120Z,97.1
2017-10-09T18:00:33.361Z,97.1
2017-10-09T18:00:53.552Z,97
2017-10-09T18:01:13.778Z,96.9
2017-10-09T18:01:33.939Z,96.8
2017-10-09T18:01:54.111Z,97.3
2017-10-09T18:02:14.278Z,96.7
2017-10-09T18:02:34.463Z,96.7
2017-10-09T18:02:54.801Z,97.3
2017-10-09T18:03:15.083Z,96.7
2017-10-09T18:03:35.254Z,96.9
2017-10-09T18:03:55.430Z,97.2
2017-10-09T18:04:15.602Z,97.6
2017-10-09T18:04:35.774Z,97.3
2017-10-09T18:04:56.022Z,97.5
2017-10-09T18:05:16.215Z,97.1
2017-10-09T18:05:36.477Z,97
2017-10-09T18:05:56.797Z,97.3
2017-10-09T18:06:16.973Z,97.1
2017-10-09T18:06:37.144Z,97.4
2017-10-09T18:06:57.322Z,97.5
2017-10-09T18:07:17.602Z,97.5
2017-10-09T18:07:37.846Z,97.5
2017-10-09T18:07:58.030Z,97.6